sensor_id;sensor_type;location;lat;lon;timestamp;temperature;humidity
36856;DHT22;22788;51.434;6.786;2023-02-22T00:00:38;8.70;99.90
36856;DHT22;22788;51.434;6.786;2023-02-22T00:03:04;8.70;99.90
36856;DHT22;22788;51.434;6.786;2023-02-22T00:05:30;8.70;99.90
36856;DHT22;22788;51.434;6.786;2023-02-22T00:07:56;8.70;99.90
36856;DHT22;22788;51.434;6.786;2023-02-22T00:10:24;8.70;99.90
36856;DHT22;22788;51.434;6.786;2023-02-22T00:12:51;8.70;99.90
36856;DHT22;22788;51.434;6.786;2023-02-22T00:15:19;8.70;99.90
36856;DHT22;22788;51.434;6.786;2023-02-22T00:17:46;8.70;99.90
36856;DHT22;22788;51.434;6.786;2023-02-22T00:20:14;8.70;99.90
36856;DHT22;22788;51.434;6.786;2023-02-22T00:22:40;8.70;99.90
36856;DHT22;22788;51.434;6.786;2023-02-22T00:25:08;8.70;99.90
36856;DHT22;22788;51.434;6.786;2023-02-22T00:27:35;8.70;99.90
36856;DHT22;22788;51.434;6.786;2023-02-22T00:30:02;8.70;99.90
36856;DHT22;22788;51.434;6.786;2023-02-22T00:32:28;8.70;99.90
36856;DHT22;22788;51.434;6.786;2023-02-22T00:34:55;8.70;99.90
36856;DHT22;22788;51.434;6.786;2023-02-22T00:37:21;8.70;99.90
36856;DHT22;22788;51.434;6.786;2023-02-22T00:39:47;8.70;99.90
36856;DHT22;22788;51.434;6.786;2023-02-22T00:42:14;8.70;99.90
36856;DHT22;22788;51.434;6.786;2023-02-22T00:44:42;8.70;99.90
36856;DHT22;22788;51.434;6.786;2023-02-22T00:47:08;8.70;99.90
36856;DHT22;22788;51.434;6.786;2023-02-22T00:49:35;8.70;99.90
36856;DHT22;22788;51.434;6.786;2023-02-22T00:52:02;8.70;99.90
36856;DHT22;22788;51.434;6.786;2023-02-22T00:54:28;8.70;99.90
36856;DHT22;22788;51.434;6.786;2023-02-22T00:56:54;8.70;99.90
36856;DHT22;22788;51.434;6.786;2023-02-22T00:59:20;8.70;99.90
36856;DHT22;22788;51.434;6.786;2023-02-22T01:01:47;8.60;99.90
36856;DHT22;22788;51.434;6.786;2023-02-22T01:04:13;8.70;99.90
36856;DHT22;22788;51.434;6.786;2023-02-22T01:06:39;8.60;99.90
36856;DHT22;22788;51.434;6.786;2023-02-22T01:09:05;8.60;99.90
36856;DHT22;22788;51.434;6.786;2023-02-22T01:11:31;8.60;99.90
36856;DHT22;22788;51.434;6.786;2023-02-22T01:13:58;8.60;99.90
36856;DHT22;22788;51.434;6.786;2023-02-22T01:16:24;8.60;99.90
36856;DHT22;22788;51.434;6.786;2023-02-22T01:18:51;8.60;99.90
36856;DHT22;22788;51.434;6.786;2023-02-22T01:21:18;8.60;99.90
36856;DHT22;22788;51.434;6.786;2023-02-22T01:23:44;8.60;99.90
36856;DHT22;22788;51.434;6.786;2023-02-22T01:26:10;8.60;99.90
36856;DHT22;22788;51.434;6.786;2023-02-22T01:28:37;8.60;99.90
36856;DHT22;22788;51.434;6.786;2023-02-22T01:31:04;8.60;99.90
36856;DHT22;22788;51.434;6.786;2023-02-22T01:33:30;8.50;99.90
36856;DHT22;22788;51.434;6.786;2023-02-22T01:35:58;8.60;99.90
36856;DHT22;22788;51.434;6.786;2023-02-22T01:38:24;8.60;99.90
36856;DHT22;22788;51.434;6.786;2023-02-22T01:40:51;8.50;99.90
36856;DHT22;22788;51.434;6.786;2023-02-22T01:43:20;8.50;99.90
36856;DHT22;22788;51.434;6.786;2023-02-22T01:45:54;8.50;99.90
36856;DHT22;22788;51.434;6.786;2023-02-22T01:48:28;8.50;99.90
36856;DHT22;22788;51.434;6.786;2023-02-22T01:50:59;8.50;99.90
36856;DHT22;22788;51.434;6.786;2023-02-22T01:53:30;8.40;99.90
36856;DHT22;22788;51.434;6.786;2023-02-22T01:55:57;8.40;99.90
36856;DHT22;22788;51.434;6.786;2023-02-22T01:58:24;8.40;99.90
36856;DHT22;22788;51.434;6.786;2023-02-22T02:00:50;8.40;99.90
36856;DHT22;22788;51.434;6.786;2023-02-22T02:03:19;8.40;99.90
36856;DHT22;22788;51.434;6.786;2023-02-22T02:05:47;8.40;99.90
36856;DHT22;22788;51.434;6.786;2023-02-22T02:08:23;8.40;99.90
36856;DHT22;22788;51.434;6.786;2023-02-22T02:10:51;8.40;99.90
36856;DHT22;22788;51.434;6.786;2023-02-22T02:13:18;8.40;99.90
36856;DHT22;22788;51.434;6.786;2023-02-22T02:15:44;8.40;99.90
36856;DHT22;22788;51.434;6.786;2023-02-22T02:18:11;8.40;99.90
36856;DHT22;22788;51.434;6.786;2023-02-22T02:20:45;8.40;99.90
36856;DHT22;22788;51.434;6.786;2023-02-22T02:23:34;8.40;99.90
36856;DHT22;22788;51.434;6.786;2023-02-22T02:26:25;8.40;99.90
36856;DHT22;22788;51.434;6.786;2023-02-22T02:32:26;8.30;99.90
36856;DHT22;22788;51.434;6.786;2023-02-22T02:34:59;8.30;99.90
36856;DHT22;22788;51.434;6.786;2023-02-22T02:37:32;8.20;99.90
36856;DHT22;22788;51.434;6.786;2023-02-22T02:40:09;8.30;99.90
36856;DHT22;22788;51.434;6.786;2023-02-22T02:42:40;8.30;99.90
36856;DHT22;22788;51.434;6.786;2023-02-22T02:45:09;8.30;99.90
36856;DHT22;22788;51.434;6.786;2023-02-22T02:47:42;8.30;99.90
36856;DHT22;22788;51.434;6.786;2023-02-22T02:50:12;8.30;99.90
36856;DHT22;22788;51.434;6.786;2023-02-22T02:52:40;8.30;99.90
36856;DHT22;22788;51.434;6.786;2023-02-22T02:55:08;8.30;99.90
36856;DHT22;22788;51.434;6.786;2023-02-22T02:57:35;8.20;99.90
36856;DHT22;22788;51.434;6.786;2023-02-22T03:00:01;8.20;99.90
36856;DHT22;22788;51.434;6.786;2023-02-22T03:02:39;8.20;99.90
36856;DHT22;22788;51.434;6.786;2023-02-22T03:05:28;8.30;99.90
36856;DHT22;22788;51.434;6.786;2023-02-22T03:08:01;8.20;99.90
36856;DHT22;22788;51.434;6.786;2023-02-22T03:10:42;8.20;99.90
36856;DHT22;22788;51.434;6.786;2023-02-22T03:13:14;8.20;99.90
36856;DHT22;22788;51.434;6.786;2023-02-22T03:15:50;8.20;99.90
36856;DHT22;22788;51.434;6.786;2023-02-22T03:18:24;8.20;99.90
36856;DHT22;22788;51.434;6.786;2023-02-22T03:20:57;8.20;99.90
36856;DHT22;22788;51.434;6.786;2023-02-22T03:23:28;8.20;99.90
36856;DHT22;22788;51.434;6.786;2023-02-22T03:26:00;8.20;99.90
36856;DHT22;22788;51.434;6.786;2023-02-22T03:28:29;8.20;99.90
36856;DHT22;22788;51.434;6.786;2023-02-22T03:30:59;8.10;99.90
36856;DHT22;22788;51.434;6.786;2023-02-22T03:33:31;8.10;99.90
36856;DHT22;22788;51.434;6.786;2023-02-22T03:36:00;8.10;99.90
36856;DHT22;22788;51.434;6.786;2023-02-22T03:38:32;8.10;99.90
36856;DHT22;22788;51.434;6.786;2023-02-22T03:41:01;8.10;99.90
36856;DHT22;22788;51.434;6.786;2023-02-22T03:43:29;8.10;99.90
36856;DHT22;22788;51.434;6.786;2023-02-22T03:45:57;8.10;99.90
36856;DHT22;22788;51.434;6.786;2023-02-22T03:48:28;8.10;99.90
36856;DHT22;22788;51.434;6.786;2023-02-22T03:50:55;8.10;99.90
36856;DHT22;22788;51.434;6.786;2023-02-22T03:53:22;8.10;99.90
36856;DHT22;22788;51.434;6.786;2023-02-22T03:55:49;8.10;99.90
36856;DHT22;22788;51.434;6.786;2023-02-22T03:58:17;8.10;99.90
36856;DHT22;22788;51.434;6.786;2023-02-22T04:00:45;8.10;99.90
36856;DHT22;22788;51.434;6.786;2023-02-22T04:03:11;8.00;99.90
36856;DHT22;22788;51.434;6.786;2023-02-22T04:05:39;8.00;99.90
36856;DHT22;22788;51.434;6.786;2023-02-22T04:08:05;8.00;99.90
36856;DHT22;22788;51.434;6.786;2023-02-22T04:10:31;8.10;99.90
36856;DHT22;22788;51.434;6.786;2023-02-22T04:12:57;8.10;99.90
36856;DHT22;22788;51.434;6.786;2023-02-22T04:15:23;8.00;99.90
36856;DHT22;22788;51.434;6.786;2023-02-22T04:17:49;8.10;99.90
36856;DHT22;22788;51.434;6.786;2023-02-22T04:20:16;8.10;99.90
36856;DHT22;22788;51.434;6.786;2023-02-22T04:22:43;8.10;99.90
36856;DHT22;22788;51.434;6.786;2023-02-22T04:25:09;8.10;99.90
36856;DHT22;22788;51.434;6.786;2023-02-22T04:27:35;8.10;99.90
36856;DHT22;22788;51.434;6.786;2023-02-22T04:30:02;8.10;99.90
36856;DHT22;22788;51.434;6.786;2023-02-22T04:32:28;8.10;99.90
36856;DHT22;22788;51.434;6.786;2023-02-22T04:34:54;8.00;99.90
36856;DHT22;22788;51.434;6.786;2023-02-22T04:37:20;8.00;99.90
36856;DHT22;22788;51.434;6.786;2023-02-22T04:39:47;8.00;99.90
36856;DHT22;22788;51.434;6.786;2023-02-22T04:42:13;8.00;99.90
36856;DHT22;22788;51.434;6.786;2023-02-22T04:44:39;8.00;99.90
36856;DHT22;22788;51.434;6.786;2023-02-22T04:47:05;8.00;99.90
36856;DHT22;22788;51.434;6.786;2023-02-22T04:49:31;8.00;99.90
36856;DHT22;22788;51.434;6.786;2023-02-22T04:51:57;8.00;99.90
36856;DHT22;22788;51.434;6.786;2023-02-22T04:54:23;8.00;99.90
36856;DHT22;22788;51.434;6.786;2023-02-22T04:56:51;8.00;99.90
36856;DHT22;22788;51.434;6.786;2023-02-22T04:59:17;8.00;99.90
36856;DHT22;22788;51.434;6.786;2023-02-22T05:01:43;8.00;99.90
36856;DHT22;22788;51.434;6.786;2023-02-22T05:04:09;8.00;99.90
36856;DHT22;22788;51.434;6.786;2023-02-22T05:06:35;8.00;99.90
36856;DHT22;22788;51.434;6.786;2023-02-22T05:09:01;7.90;99.90
36856;DHT22;22788;51.434;6.786;2023-02-22T05:11:28;7.90;99.90
36856;DHT22;22788;51.434;6.786;2023-02-22T05:13:55;7.90;99.90
36856;DHT22;22788;51.434;6.786;2023-02-22T05:16:21;7.90;99.90
36856;DHT22;22788;51.434;6.786;2023-02-22T05:18:47;7.90;99.90
36856;DHT22;22788;51.434;6.786;2023-02-22T05:21:13;7.90;99.90
36856;DHT22;22788;51.434;6.786;2023-02-22T05:23:40;7.90;99.90
36856;DHT22;22788;51.434;6.786;2023-02-22T05:26:06;7.80;99.90
36856;DHT22;22788;51.434;6.786;2023-02-22T05:28:32;7.70;99.90
36856;DHT22;22788;51.434;6.786;2023-02-22T05:30:59;7.80;99.90
36856;DHT22;22788;51.434;6.786;2023-02-22T05:33:25;7.80;99.90
36856;DHT22;22788;51.434;6.786;2023-02-22T05:35:51;7.90;99.90
36856;DHT22;22788;51.434;6.786;2023-02-22T05:38:17;7.80;99.90
36856;DHT22;22788;51.434;6.786;2023-02-22T05:40:43;7.90;99.90
36856;DHT22;22788;51.434;6.786;2023-02-22T05:43:09;7.90;99.90
36856;DHT22;22788;51.434;6.786;2023-02-22T05:45:35;7.90;99.90
36856;DHT22;22788;51.434;6.786;2023-02-22T05:48:03;7.80;99.90
36856;DHT22;22788;51.434;6.786;2023-02-22T05:50:30;7.80;99.90
36856;DHT22;22788;51.434;6.786;2023-02-22T05:52:56;7.80;99.90
36856;DHT22;22788;51.434;6.786;2023-02-22T05:55:23;7.80;99.90
36856;DHT22;22788;51.434;6.786;2023-02-22T05:57:49;7.90;99.90
36856;DHT22;22788;51.434;6.786;2023-02-22T06:00:18;7.90;99.90
36856;DHT22;22788;51.434;6.786;2023-02-22T06:02:44;7.80;99.90
36856;DHT22;22788;51.434;6.786;2023-02-22T06:05:12;7.90;99.90
36856;DHT22;22788;51.434;6.786;2023-02-22T06:07:38;7.80;99.90
36856;DHT22;22788;51.434;6.786;2023-02-22T06:10:04;7.80;99.90
36856;DHT22;22788;51.434;6.786;2023-02-22T06:12:30;7.80;99.90
36856;DHT22;22788;51.434;6.786;2023-02-22T06:14:56;7.90;99.90
36856;DHT22;22788;51.434;6.786;2023-02-22T06:17:22;7.90;99.90
36856;DHT22;22788;51.434;6.786;2023-02-22T06:19:48;7.90;99.90
36856;DHT22;22788;51.434;6.786;2023-02-22T06:22:17;7.90;99.90
36856;DHT22;22788;51.434;6.786;2023-02-22T06:24:44;7.80;99.90
36856;DHT22;22788;51.434;6.786;2023-02-22T06:27:10;7.90;99.90
36856;DHT22;22788;51.434;6.786;2023-02-22T06:29:36;7.80;99.90
36856;DHT22;22788;51.434;6.786;2023-02-22T06:32:02;7.80;99.90
36856;DHT22;22788;51.434;6.786;2023-02-22T06:34:29;7.80;99.90
36856;DHT22;22788;51.434;6.786;2023-02-22T06:36:55;7.80;99.90
36856;DHT22;22788;51.434;6.786;2023-02-22T06:39:22;7.80;99.90
36856;DHT22;22788;51.434;6.786;2023-02-22T06:41:48;7.80;99.90
36856;DHT22;22788;51.434;6.786;2023-02-22T06:44:14;7.80;99.90
36856;DHT22;22788;51.434;6.786;2023-02-22T06:46:46;7.80;99.90
36856;DHT22;22788;51.434;6.786;2023-02-22T06:49:12;7.80;99.90
36856;DHT22;22788;51.434;6.786;2023-02-22T06:51:39;7.90;99.90
36856;DHT22;22788;51.434;6.786;2023-02-22T06:54:05;7.90;99.90
36856;DHT22;22788;51.434;6.786;2023-02-22T06:56:32;7.80;99.90
36856;DHT22;22788;51.434;6.786;2023-02-22T06:58:58;7.80;99.90
36856;DHT22;22788;51.434;6.786;2023-02-22T07:01:24;7.80;99.90
36856;DHT22;22788;51.434;6.786;2023-02-22T07:03:50;7.80;99.90
36856;DHT22;22788;51.434;6.786;2023-02-22T07:06:16;7.80;99.90
36856;DHT22;22788;51.434;6.786;2023-02-22T07:08:42;7.70;99.90
36856;DHT22;22788;51.434;6.786;2023-02-22T07:11:08;7.70;99.90
36856;DHT22;22788;51.434;6.786;2023-02-22T07:13:36;7.80;99.90
36856;DHT22;22788;51.434;6.786;2023-02-22T07:16:02;7.80;99.90
36856;DHT22;22788;51.434;6.786;2023-02-22T07:18:28;7.70;99.90
36856;DHT22;22788;51.434;6.786;2023-02-22T07:20:54;7.80;99.90
36856;DHT22;22788;51.434;6.786;2023-02-22T07:23:20;7.80;99.90
36856;DHT22;22788;51.434;6.786;2023-02-22T07:25:46;7.70;99.90
36856;DHT22;22788;51.434;6.786;2023-02-22T07:28:12;7.70;99.90
36856;DHT22;22788;51.434;6.786;2023-02-22T07:30:40;7.70;99.90
36856;DHT22;22788;51.434;6.786;2023-02-22T07:33:08;7.70;99.90
36856;DHT22;22788;51.434;6.786;2023-02-22T07:35:36;7.70;99.90
36856;DHT22;22788;51.434;6.786;2023-02-22T07:38:03;7.70;99.90
36856;DHT22;22788;51.434;6.786;2023-02-22T07:40:30;7.70;99.90
36856;DHT22;22788;51.434;6.786;2023-02-22T07:42:58;7.70;99.90
36856;DHT22;22788;51.434;6.786;2023-02-22T07:45:26;7.70;99.90
36856;DHT22;22788;51.434;6.786;2023-02-22T07:47:54;7.80;99.90
36856;DHT22;22788;51.434;6.786;2023-02-22T07:50:21;7.70;99.90
36856;DHT22;22788;51.434;6.786;2023-02-22T07:52:48;7.70;99.90
36856;DHT22;22788;51.434;6.786;2023-02-22T07:55:17;7.70;99.90
36856;DHT22;22788;51.434;6.786;2023-02-22T07:57:44;7.70;99.90
36856;DHT22;22788;51.434;6.786;2023-02-22T08:00:12;7.70;99.90
36856;DHT22;22788;51.434;6.786;2023-02-22T08:02:38;7.70;99.90
36856;DHT22;22788;51.434;6.786;2023-02-22T08:05:07;7.70;99.90
36856;DHT22;22788;51.434;6.786;2023-02-22T08:07:33;7.70;99.90
36856;DHT22;22788;51.434;6.786;2023-02-22T08:09:59;7.70;99.90
36856;DHT22;22788;51.434;6.786;2023-02-22T08:12:25;7.70;99.90
36856;DHT22;22788;51.434;6.786;2023-02-22T08:14:51;7.70;99.90
36856;DHT22;22788;51.434;6.786;2023-02-22T08:17:17;7.70;99.90
36856;DHT22;22788;51.434;6.786;2023-02-22T08:19:43;7.70;99.90
36856;DHT22;22788;51.434;6.786;2023-02-22T08:22:10;7.70;99.90
36856;DHT22;22788;51.434;6.786;2023-02-22T08:24:36;7.70;99.90
36856;DHT22;22788;51.434;6.786;2023-02-22T08:27:03;7.70;99.90
36856;DHT22;22788;51.434;6.786;2023-02-22T08:29:29;7.80;99.90
36856;DHT22;22788;51.434;6.786;2023-02-22T08:31:55;7.80;99.90
36856;DHT22;22788;51.434;6.786;2023-02-22T08:34:21;7.80;99.90
36856;DHT22;22788;51.434;6.786;2023-02-22T08:36:47;7.80;99.90
36856;DHT22;22788;51.434;6.786;2023-02-22T08:39:14;7.80;99.90
36856;DHT22;22788;51.434;6.786;2023-02-22T08:41:40;7.70;99.90
36856;DHT22;22788;51.434;6.786;2023-02-22T08:44:06;7.70;99.90
36856;DHT22;22788;51.434;6.786;2023-02-22T08:46:32;7.80;99.90
36856;DHT22;22788;51.434;6.786;2023-02-22T08:48:58;7.70;99.90
36856;DHT22;22788;51.434;6.786;2023-02-22T08:51:26;7.70;99.90
36856;DHT22;22788;51.434;6.786;2023-02-22T08:53:52;7.70;99.90
36856;DHT22;22788;51.434;6.786;2023-02-22T08:56:20;7.70;99.90
36856;DHT22;22788;51.434;6.786;2023-02-22T08:58:46;7.60;99.90
36856;DHT22;22788;51.434;6.786;2023-02-22T09:01:12;7.70;99.90
36856;DHT22;22788;51.434;6.786;2023-02-22T09:03:38;7.70;99.90
36856;DHT22;22788;51.434;6.786;2023-02-22T09:06:04;7.70;99.90
36856;DHT22;22788;51.434;6.786;2023-02-22T09:08:30;7.70;99.90
36856;DHT22;22788;51.434;6.786;2023-02-22T09:10:56;7.70;99.90
36856;DHT22;22788;51.434;6.786;2023-02-22T09:13:23;7.70;99.90
36856;DHT22;22788;51.434;6.786;2023-02-22T09:15:49;7.80;99.90
36856;DHT22;22788;51.434;6.786;2023-02-22T09:18:15;7.70;99.90
36856;DHT22;22788;51.434;6.786;2023-02-22T09:20:41;7.80;99.90
36856;DHT22;22788;51.434;6.786;2023-02-22T09:23:08;7.80;99.90
36856;DHT22;22788;51.434;6.786;2023-02-22T09:25:34;7.80;99.90
36856;DHT22;22788;51.434;6.786;2023-02-22T09:28:01;7.80;99.90
36856;DHT22;22788;51.434;6.786;2023-02-22T09:30:31;7.90;99.90
36856;DHT22;22788;51.434;6.786;2023-02-22T09:32:59;7.80;99.90
36856;DHT22;22788;51.434;6.786;2023-02-22T09:35:26;7.90;99.90
36856;DHT22;22788;51.434;6.786;2023-02-22T09:37:53;7.90;99.90
36856;DHT22;22788;51.434;6.786;2023-02-22T09:40:20;8.00;99.90
36856;DHT22;22788;51.434;6.786;2023-02-22T09:42:54;8.10;99.90
36856;DHT22;22788;51.434;6.786;2023-02-22T09:47:54;8.10;99.90
36856;DHT22;22788;51.434;6.786;2023-02-22T09:50:24;8.10;99.90
36856;DHT22;22788;51.434;6.786;2023-02-22T09:52:54;8.10;99.90
36856;DHT22;22788;51.434;6.786;2023-02-22T09:55:27;8.10;99.90
36856;DHT22;22788;51.434;6.786;2023-02-22T09:57:57;8.20;99.90
36856;DHT22;22788;51.434;6.786;2023-02-22T10:00:27;8.20;99.90
36856;DHT22;22788;51.434;6.786;2023-02-22T10:03:02;8.20;99.90
36856;DHT22;22788;51.434;6.786;2023-02-22T10:05:35;8.20;99.90
36856;DHT22;22788;51.434;6.786;2023-02-22T10:08:03;8.20;99.90
36856;DHT22;22788;51.434;6.786;2023-02-22T10:10:33;8.30;99.90
36856;DHT22;22788;51.434;6.786;2023-02-22T10:13:04;8.20;99.90
36856;DHT22;22788;51.434;6.786;2023-02-22T10:15:53;8.30;99.90
36856;DHT22;22788;51.434;6.786;2023-02-22T10:18:36;8.30;99.90
36856;DHT22;22788;51.434;6.786;2023-02-22T10:21:16;8.40;99.90
36856;DHT22;22788;51.434;6.786;2023-02-22T10:23:54;8.40;99.90
36856;DHT22;22788;51.434;6.786;2023-02-22T10:26:27;8.40;99.90
36856;DHT22;22788;51.434;6.786;2023-02-22T10:28:59;8.50;99.90
36856;DHT22;22788;51.434;6.786;2023-02-22T10:31:29;8.50;99.90
36856;DHT22;22788;51.434;6.786;2023-02-22T10:34:00;8.50;99.90
36856;DHT22;22788;51.434;6.786;2023-02-22T10:36:26;8.50;99.90
36856;DHT22;22788;51.434;6.786;2023-02-22T10:38:56;8.60;99.90
36856;DHT22;22788;51.434;6.786;2023-02-22T10:41:27;8.60;99.90
36856;DHT22;22788;51.434;6.786;2023-02-22T10:43:53;8.60;99.90
36856;DHT22;22788;51.434;6.786;2023-02-22T10:46:21;8.70;99.90
36856;DHT22;22788;51.434;6.786;2023-02-22T10:48:51;8.70;99.90
36856;DHT22;22788;51.434;6.786;2023-02-22T10:51:20;8.80;99.90
36856;DHT22;22788;51.434;6.786;2023-02-22T10:53:55;8.80;99.90
36856;DHT22;22788;51.434;6.786;2023-02-22T10:56:23;8.90;99.90
36856;DHT22;22788;51.434;6.786;2023-02-22T10:58:53;9.00;99.90
36856;DHT22;22788;51.434;6.786;2023-02-22T11:01:32;9.20;99.90
36856;DHT22;22788;51.434;6.786;2023-02-22T11:04:02;9.10;99.90
36856;DHT22;22788;51.434;6.786;2023-02-22T11:06:33;9.10;99.90
36856;DHT22;22788;51.434;6.786;2023-02-22T11:09:11;9.20;99.90
36856;DHT22;22788;51.434;6.786;2023-02-22T11:11:39;9.30;99.90
36856;DHT22;22788;51.434;6.786;2023-02-22T11:14:06;9.30;99.90
36856;DHT22;22788;51.434;6.786;2023-02-22T11:16:34;9.30;99.90
36856;DHT22;22788;51.434;6.786;2023-02-22T11:19:02;9.50;99.90
36856;DHT22;22788;51.434;6.786;2023-02-22T11:21:33;9.50;99.90
36856;DHT22;22788;51.434;6.786;2023-02-22T11:24:05;9.50;99.90
36856;DHT22;22788;51.434;6.786;2023-02-22T11:26:37;9.40;99.90
36856;DHT22;22788;51.434;6.786;2023-02-22T11:29:11;9.40;99.90
36856;DHT22;22788;51.434;6.786;2023-02-22T11:31:41;9.40;99.90
36856;DHT22;22788;51.434;6.786;2023-02-22T11:34:28;9.40;99.90
36856;DHT22;22788;51.434;6.786;2023-02-22T11:36:56;9.60;99.90
36856;DHT22;22788;51.434;6.786;2023-02-22T11:39:24;9.80;99.90
36856;DHT22;22788;51.434;6.786;2023-02-22T11:41:51;9.80;99.90
36856;DHT22;22788;51.434;6.786;2023-02-22T11:44:23;9.80;99.90
36856;DHT22;22788;51.434;6.786;2023-02-22T11:46:50;9.80;99.90
36856;DHT22;22788;51.434;6.786;2023-02-22T11:49:16;9.70;99.90
36856;DHT22;22788;51.434;6.786;2023-02-22T11:51:48;9.80;99.90
36856;DHT22;22788;51.434;6.786;2023-02-22T11:54:35;9.70;99.90
36856;DHT22;22788;51.434;6.786;2023-02-22T12:07:34;9.90;99.90
36856;DHT22;22788;51.434;6.786;2023-02-22T12:10:12;9.90;99.90
36856;DHT22;22788;51.434;6.786;2023-02-22T12:12:50;9.80;99.90
36856;DHT22;22788;51.434;6.786;2023-02-22T12:15:26;9.70;99.90
36856;DHT22;22788;51.434;6.786;2023-02-22T12:17:58;9.80;99.90
36856;DHT22;22788;51.434;6.786;2023-02-22T12:20:33;9.90;99.90
36856;DHT22;22788;51.434;6.786;2023-02-22T12:23:06;9.90;99.90
36856;DHT22;22788;51.434;6.786;2023-02-22T12:25:44;10.00;99.90
36856;DHT22;22788;51.434;6.786;2023-02-22T12:28:18;10.20;99.90
36856;DHT22;22788;51.434;6.786;2023-02-22T12:30:51;10.30;99.90
36856;DHT22;22788;51.434;6.786;2023-02-22T12:33:21;10.40;99.90
36856;DHT22;22788;51.434;6.786;2023-02-22T12:35:53;10.50;99.90
36856;DHT22;22788;51.434;6.786;2023-02-22T12:38:23;10.50;99.90
36856;DHT22;22788;51.434;6.786;2023-02-22T12:40:59;10.60;99.90
36856;DHT22;22788;51.434;6.786;2023-02-22T12:43:28;10.60;99.90
36856;DHT22;22788;51.434;6.786;2023-02-22T12:46:01;10.60;99.90
36856;DHT22;22788;51.434;6.786;2023-02-22T12:48:38;10.40;99.90
36856;DHT22;22788;51.434;6.786;2023-02-22T12:51:18;10.30;99.90
36856;DHT22;22788;51.434;6.786;2023-02-22T12:53:53;10.30;99.90
36856;DHT22;22788;51.434;6.786;2023-02-22T12:56:25;10.30;99.90
36856;DHT22;22788;51.434;6.786;2023-02-22T12:58:56;10.50;99.90
36856;DHT22;22788;51.434;6.786;2023-02-22T13:01:27;10.60;99.90
36856;DHT22;22788;51.434;6.786;2023-02-22T13:03:55;10.80;99.90
36856;DHT22;22788;51.434;6.786;2023-02-22T13:06:29;10.70;99.90
36856;DHT22;22788;51.434;6.786;2023-02-22T13:09:21;10.60;99.90
36856;DHT22;22788;51.434;6.786;2023-02-22T13:11:58;10.60;99.90
36856;DHT22;22788;51.434;6.786;2023-02-22T13:14:52;11.00;99.90
36856;DHT22;22788;51.434;6.786;2023-02-22T13:17:29;11.00;99.90
36856;DHT22;22788;51.434;6.786;2023-02-22T13:19:59;11.10;99.90
36856;DHT22;22788;51.434;6.786;2023-02-22T13:22:29;11.10;99.90
36856;DHT22;22788;51.434;6.786;2023-02-22T13:25:05;11.00;99.90
36856;DHT22;22788;51.434;6.786;2023-02-22T13:27:39;11.00;99.90
36856;DHT22;22788;51.434;6.786;2023-02-22T13:30:15;11.00;99.90
36856;DHT22;22788;51.434;6.786;2023-02-22T13:32:59;10.90;99.90
36856;DHT22;22788;51.434;6.786;2023-02-22T13:35:45;10.70;99.90
36856;DHT22;22788;51.434;6.786;2023-02-22T13:38:35;10.70;99.90
36856;DHT22;22788;51.434;6.786;2023-02-22T13:41:16;10.80;99.90
36856;DHT22;22788;51.434;6.786;2023-02-22T13:44:01;10.90;99.90
36856;DHT22;22788;51.434;6.786;2023-02-22T13:46:47;11.00;99.90
36856;DHT22;22788;51.434;6.786;2023-02-22T13:49:31;10.90;99.90
36856;DHT22;22788;51.434;6.786;2023-02-22T13:52:01;11.00;99.90
36856;DHT22;22788;51.434;6.786;2023-02-22T13:54:34;11.00;99.90
36856;DHT22;22788;51.434;6.786;2023-02-22T13:57:02;11.10;99.90
36856;DHT22;22788;51.434;6.786;2023-02-22T13:59:32;11.20;99.90
36856;DHT22;22788;51.434;6.786;2023-02-22T14:01:59;11.20;99.90
36856;DHT22;22788;51.434;6.786;2023-02-22T14:04:35;11.30;99.90
36856;DHT22;22788;51.434;6.786;2023-02-22T14:07:03;11.30;99.90
36856;DHT22;22788;51.434;6.786;2023-02-22T14:09:50;11.30;99.90
36856;DHT22;22788;51.434;6.786;2023-02-22T14:12:46;11.30;99.90
36856;DHT22;22788;51.434;6.786;2023-02-22T14:15:15;11.30;99.90
36856;DHT22;22788;51.434;6.786;2023-02-22T14:17:42;11.30;99.90
36856;DHT22;22788;51.434;6.786;2023-02-22T14:20:24;11.30;99.90
36856;DHT22;22788;51.434;6.786;2023-02-22T14:22:50;11.30;99.90
36856;DHT22;22788;51.434;6.786;2023-02-22T14:25:32;11.20;99.90
36856;DHT22;22788;51.434;6.786;2023-02-22T14:27:59;11.20;99.90
36856;DHT22;22788;51.434;6.786;2023-02-22T14:30:29;11.20;99.90
36856;DHT22;22788;51.434;6.786;2023-02-22T14:32:55;11.20;99.90
36856;DHT22;22788;51.434;6.786;2023-02-22T14:35:23;11.20;99.90
36856;DHT22;22788;51.434;6.786;2023-02-22T14:37:52;11.30;99.90
36856;DHT22;22788;51.434;6.786;2023-02-22T14:40:23;11.20;99.90
36856;DHT22;22788;51.434;6.786;2023-02-22T14:42:56;11.20;99.90
36856;DHT22;22788;51.434;6.786;2023-02-22T14:45:27;11.10;99.90
36856;DHT22;22788;51.434;6.786;2023-02-22T14:47:58;11.20;99.90
36856;DHT22;22788;51.434;6.786;2023-02-22T14:50:41;11.10;99.90
36856;DHT22;22788;51.434;6.786;2023-02-22T14:53:22;11.10;99.90
36856;DHT22;22788;51.434;6.786;2023-02-22T14:55:51;11.10;99.90
36856;DHT22;22788;51.434;6.786;2023-02-22T14:58:20;11.10;99.90
36856;DHT22;22788;51.434;6.786;2023-02-22T15:00:49;11.10;99.90
36856;DHT22;22788;51.434;6.786;2023-02-22T15:03:23;11.10;99.90
36856;DHT22;22788;51.434;6.786;2023-02-22T15:05:49;11.10;99.90
36856;DHT22;22788;51.434;6.786;2023-02-22T15:08:17;11.20;99.90
36856;DHT22;22788;51.434;6.786;2023-02-22T15:10:45;11.30;99.90
36856;DHT22;22788;51.434;6.786;2023-02-22T15:13:17;11.30;99.90
36856;DHT22;22788;51.434;6.786;2023-02-22T15:15:46;11.30;99.90
36856;DHT22;22788;51.434;6.786;2023-02-22T15:18:23;11.30;99.90
36856;DHT22;22788;51.434;6.786;2023-02-22T15:20:50;11.30;99.90
36856;DHT22;22788;51.434;6.786;2023-02-22T15:23:16;11.40;99.90
36856;DHT22;22788;51.434;6.786;2023-02-22T15:25:46;11.40;99.90
36856;DHT22;22788;51.434;6.786;2023-02-22T15:28:14;11.40;99.90
36856;DHT22;22788;51.434;6.786;2023-02-22T15:30:41;11.50;99.90
36856;DHT22;22788;51.434;6.786;2023-02-22T15:33:15;11.50;99.90
36856;DHT22;22788;51.434;6.786;2023-02-22T15:35:43;11.50;99.90
36856;DHT22;22788;51.434;6.786;2023-02-22T15:38:19;11.50;99.90
36856;DHT22;22788;51.434;6.786;2023-02-22T15:40:46;11.50;99.90
36856;DHT22;22788;51.434;6.786;2023-02-22T15:43:17;11.40;99.90
36856;DHT22;22788;51.434;6.786;2023-02-22T15:45:44;11.50;99.90
36856;DHT22;22788;51.434;6.786;2023-02-22T15:48:11;11.40;99.90
36856;DHT22;22788;51.434;6.786;2023-02-22T15:50:37;11.40;99.90
36856;DHT22;22788;51.434;6.786;2023-02-22T15:53:07;11.30;99.90
36856;DHT22;22788;51.434;6.786;2023-02-22T15:55:35;11.30;99.90
36856;DHT22;22788;51.434;6.786;2023-02-22T15:58:09;11.30;99.90
36856;DHT22;22788;51.434;6.786;2023-02-22T16:00:38;11.30;99.90
36856;DHT22;22788;51.434;6.786;2023-02-22T16:03:07;11.20;99.90
36856;DHT22;22788;51.434;6.786;2023-02-22T16:05:38;11.20;99.90
36856;DHT22;22788;51.434;6.786;2023-02-22T16:08:13;11.10;99.90
36856;DHT22;22788;51.434;6.786;2023-02-22T16:10:43;11.10;99.90
36856;DHT22;22788;51.434;6.786;2023-02-22T16:13:19;11.30;99.90